Sy Makai — 9HB5578 — position and weather

sailwx.info

Track history (hours):
 
Tides and Currents Weather Stations Pressure Air Temp Water Temp Dewpoint Dewpoint Depression Visibility Wind Speed Wind Dir Waves Ship Positions

Sy Makai

Last reported at 2017-Nov-07 13:11 UTC. Time now 2017-Nov-22 05:42 UTC.
Position N 39°34' E 002°38'.
Warning: this ship's position is 14 days out of date.

Length 24 m.

Type: Sailing vessel. MMSI: 215000861.

Date/timePositionNaut miles runAvg speedWind from/ knotsBaromVisibWave heightAir tempDewpointWater temp
2017-Nov-07 13:11N 39°34' E 002°38'0 0.0
2017-Nov-07 12:59N 39°34' E 002°38'0 0.0
2017-Nov-07 12:29N 39°34' E 002°38'0 0.0
2017-Nov-07 11:56N 39°34' E 002°38'0 0.0
2017-Nov-07 11:23N 39°34' E 002°38'0 0.0
2017-Nov-07 10:59N 39°34' E 002°38'0 0.0
2017-Nov-07 10:29N 39°34' E 002°38'0 0.0
2017-Nov-07 10:00N 39°34' E 002°38'0 0.0
2017-Nov-07 09:30N 39°34' E 002°38'0 0.0
2017-Nov-07 09:00N 39°34' E 002°38'  
2017-Nov-04 12:26N 39°34' E 002°38'0 0.0
2017-Nov-04 11:14N 39°34' E 002°38'0 0.0
2017-Nov-04 10:59N 39°34' E 002°38'0 0.0
2017-Nov-03 16:02N 39°34' E 002°38'0 0.0
2017-Nov-03 15:59N 39°34' E 002°38'1 2.8
2017-Nov-03 15:30N 39°33' E 002°38'1 2.4
2017-Nov-03 15:00N 39°32' E 002°37'3 6.5
2017-Nov-03 14:30N 39°31' E 002°41'4 7.5
2017-Nov-03 14:00N 39°28' E 002°43'1 1.3
2017-Nov-03 13:30N 39°29' E 002°43'2 4.7
2017-Nov-03 13:00N 39°30' E 002°41'1 2.0
2017-Nov-03 12:30N 39°30' E 002°39'2 4.9
2017-Nov-03 12:00N 39°32' E 002°39'2 3.4
2017-Nov-03 11:30N 39°34' E 002°38'0 0.0
2017-Nov-03 11:00N 39°34' E 002°38'  
2017-Oct-31 16:53N 39°34' E 002°38'0 1.0
2017-Oct-31 16:30N 39°34' E 002°38'4 7.2
2017-Oct-31 16:00N 39°31' E 002°36'3 1.7
2017-Oct-31 13:57N 39°29' E 002°32'2 3.6
2017-Oct-31 13:30N 39°30' E 002°33'3 5.8
2017-Oct-31 13:00N 39°29' E 002°37'4 7.3
2017-Oct-31 12:30N 39°27' E 002°41'2 4.2
2017-Oct-31 12:00N 39°29' E 002°42'4 8.2
2017-Oct-31 11:30N 39°33' E 002°39'2 3.0
2017-Oct-31 10:59N 39°34' E 002°38'0 0.0
2017-Oct-29 16:20N 39°34' E 002°38'0 0.1
2017-Oct-29 15:59N 39°34' E 002°38'2 3.3
2017-Oct-29 15:30N 39°33' E 002°40'2 3.6
2017-Oct-29 15:00N 39°32' E 002°38'4 7.0
2017-Oct-29 14:30N 39°29' E 002°35'2 4.5
2017-Oct-29 14:00N 39°29' E 002°38'2 4.9
2017-Oct-29 13:30N 39°32' E 002°39'2 4.8
2017-Oct-29 13:00N 39°34' E 002°38'0 0.4
2017-Oct-29 12:30N 39°34' E 002°38'0 0.0
2017-Oct-29 12:00N 39°34' E 002°38'0 0.0
2017-Oct-29 11:30N 39°34' E 002°38'  
Track history (hours):
 
Tides and Currents Weather Stations Pressure Air Temp Water Temp Dewpoint Dewpoint Depression Visibility Wind Speed Wind Dir Waves Ship Positions

Sy Makai

Last reported at 2017-Nov-07 13:11 UTC. Time now 2017-Nov-22 05:42 UTC.
Position N 39°34' E 002°38'.
Warning: this ship's position is 14 days out of date.

Length 24 m.

Type: Sailing vessel. MMSI: 215000861.

Date/timePositionNaut miles runAvg speedWind from/ knotsBaromVisibWave heightAir tempDewpointWater temp
2017-Nov-07 13:11N 39°34' E 002°38'0 0.0
2017-Nov-07 12:59N 39°34' E 002°38'0 0.0
2017-Nov-07 12:29N 39°34' E 002°38'0 0.0
2017-Nov-07 11:56N 39°34' E 002°38'0 0.0
2017-Nov-07 11:23N 39°34' E 002°38'0 0.0
2017-Nov-07 10:59N 39°34' E 002°38'0 0.0
2017-Nov-07 10:29N 39°34' E 002°38'0 0.0
2017-Nov-07 10:00N 39°34' E 002°38'0 0.0
2017-Nov-07 09:30N 39°34' E 002°38'0 0.0
2017-Nov-07 09:00N 39°34' E 002°38'  
2017-Nov-04 12:26N 39°34' E 002°38'0 0.0
2017-Nov-04 11:14N 39°34' E 002°38'0 0.0
2017-Nov-04 10:59N 39°34' E 002°38'0 0.0
2017-Nov-03 16:02N 39°34' E 002°38'0 0.0
2017-Nov-03 15:59N 39°34' E 002°38'1 2.8
2017-Nov-03 15:30N 39°33' E 002°38'1 2.4
2017-Nov-03 15:00N 39°32' E 002°37'3 6.5
2017-Nov-03 14:30N 39°31' E 002°41'4 7.5
2017-Nov-03 14:00N 39°28' E 002°43'1 1.3
2017-Nov-03 13:30N 39°29' E 002°43'2 4.7
2017-Nov-03 13:00N 39°30' E 002°41'1 2.0
2017-Nov-03 12:30N 39°30' E 002°39'2 4.9
2017-Nov-03 12:00N 39°32' E 002°39'2 3.4
2017-Nov-03 11:30N 39°34' E 002°38'0 0.0
2017-Nov-03 11:00N 39°34' E 002°38'  
2017-Oct-31 16:53N 39°34' E 002°38'0 1.0
2017-Oct-31 16:30N 39°34' E 002°38'4 7.2
2017-Oct-31 16:00N 39°31' E 002°36'3 1.7
2017-Oct-31 13:57N 39°29' E 002°32'2 3.6
2017-Oct-31 13:30N 39°30' E 002°33'3 5.8
2017-Oct-31 13:00N 39°29' E 002°37'4 7.3
2017-Oct-31 12:30N 39°27' E 002°41'2 4.2
2017-Oct-31 12:00N 39°29' E 002°42'4 8.2
2017-Oct-31 11:30N 39°33' E 002°39'2 3.0
2017-Oct-31 10:59N 39°34' E 002°38'0 0.0
2017-Oct-29 16:20N 39°34' E 002°38'0 0.1
2017-Oct-29 15:59N 39°34' E 002°38'2 3.3
2017-Oct-29 15:30N 39°33' E 002°40'2 3.6
2017-Oct-29 15:00N 39°32' E 002°38'4 7.0
2017-Oct-29 14:30N 39°29' E 002°35'2 4.5
2017-Oct-29 14:00N 39°29' E 002°38'2 4.9
2017-Oct-29 13:30N 39°32' E 002°39'2 4.8
2017-Oct-29 13:00N 39°34' E 002°38'0 0.4
2017-Oct-29 12:30N 39°34' E 002°38'0 0.0
2017-Oct-29 12:00N 39°34' E 002°38'0 0.0
2017-Oct-29 11:30N 39°34' E 002°38'  

Dump ship's entire track history